createdAt,value
2023-03-29T00:06:30.957Z,18.23
2023-03-29T00:16:37.341Z,18.23
2023-03-29T00:26:43.448Z,18.21
2023-03-29T00:36:49.795Z,18.21
2023-03-29T00:46:55.863Z,18.21
2023-03-29T00:57:02.075Z,18.21
2023-03-29T01:07:08.245Z,18.21
2023-03-29T01:17:13.994Z,18.20
2023-03-29T01:27:19.551Z,18.21
2023-03-29T01:37:25.003Z,18.21
2023-03-29T01:47:30.670Z,18.23
2023-03-29T01:57:36.367Z,18.23
2023-03-29T02:07:41.525Z,18.22
2023-03-29T02:17:46.999Z,18.22
2023-03-29T02:27:52.382Z,18.22
2023-03-29T02:37:57.889Z,18.20
2023-03-29T02:48:03.464Z,18.21
2023-03-29T02:58:08.979Z,18.21
2023-03-29T03:08:14.665Z,18.32
2023-03-29T03:18:20.111Z,18.35
2023-03-29T03:28:25.709Z,18.32
2023-03-29T03:38:31.475Z,18.32
2023-03-29T03:48:37.284Z,18.31
2023-03-29T03:58:42.890Z,18.31
2023-03-29T04:08:48.290Z,18.31
2023-03-29T04:18:53.956Z,18.27
2023-03-29T04:28:59.908Z,18.28
2023-03-29T04:39:05.569Z,18.28
2023-03-29T04:49:11.033Z,18.30
2023-03-29T04:59:10.930Z,14.50
2023-03-29T05:09:17.760Z,14.25
2023-03-29T05:19:25.712Z,16.29
2023-03-29T05:29:31.800Z,16.29
2023-03-29T05:39:38.028Z,17.50
2023-03-29T05:49:44.117Z,17.68
2023-03-29T05:59:50.054Z,17.76
2023-03-29T06:09:55.837Z,17.73
2023-03-29T06:20:01.902Z,17.73
2023-03-29T06:30:07.644Z,17.66
2023-03-29T06:40:13.054Z,17.66
2023-03-29T06:50:18.733Z,17.66
2023-03-29T07:00:24.320Z,17.70
2023-03-29T07:10:30.089Z,17.80
2023-03-29T07:20:36.432Z,17.85
2023-03-29T07:30:42.626Z,17.91
2023-03-29T07:40:48.962Z,17.96
2023-03-29T07:50:54.932Z,17.96
2023-03-29T08:01:01.232Z,17.95
2023-03-29T08:11:06.883Z,17.99
2023-03-29T08:21:13.238Z,18.02
2023-03-29T08:31:19.524Z,18.09
2023-03-29T08:41:25.871Z,18.23
2023-03-29T08:51:32.052Z,18.41
2023-03-29T09:01:38.288Z,18.70
2023-03-29T09:11:44.534Z,18.70
2023-03-29T09:21:50.597Z,18.75
2023-03-29T09:31:56.611Z,18.75
2023-03-29T09:42:02.339Z,18.63
2023-03-29T09:52:08.823Z,19.05
2023-03-29T10:02:15.259Z,20.28
2023-03-29T10:12:21.322Z,20.28
2023-03-29T10:22:27.333Z,19.13
2023-03-29T10:32:33.436Z,19.13
2023-03-29T10:42:40.134Z,19.98
2023-03-29T10:52:46.479Z,19.90
2023-03-29T11:02:52.515Z,19.75
2023-03-29T11:12:58.845Z,19.57
2023-03-29T11:23:04.529Z,19.57
2023-03-29T11:33:10.530Z,19.34
2023-03-29T11:43:16.211Z,19.07
2023-03-29T11:53:22.239Z,19.07
2023-03-29T12:03:28.085Z,19.07
2023-03-29T12:13:34.481Z,19.02
2023-03-29T12:23:40.349Z,19.03
2023-03-29T12:33:46.338Z,18.99
2023-03-29T12:43:52.533Z,18.91
2023-03-29T12:53:58.763Z,18.91
2023-03-29T13:04:04.792Z,18.85
2023-03-29T13:14:10.968Z,18.86
2023-03-29T13:24:16.602Z,18.86
2023-03-29T13:34:23.800Z,18.84
2023-03-29T13:44:29.161Z,18.84
2023-03-29T13:54:34.980Z,18.77
2023-03-29T14:04:40.904Z,18.73
2023-03-29T14:16:06.025Z,18.78
2023-03-29T14:26:11.293Z,18.73
2023-03-29T14:36:17.024Z,18.73
2023-03-29T14:46:23.282Z,18.64
2023-03-29T14:56:28.692Z,18.62
2023-03-29T15:06:34.334Z,18.60
2023-03-29T15:16:39.570Z,18.60
2023-03-29T15:26:45.096Z,18.57
2023-03-29T15:36:51.135Z,18.57
2023-03-29T15:46:57.277Z,18.52
2023-03-29T15:57:02.892Z,18.52
2023-03-29T16:07:08.471Z,18.49
2023-03-29T16:17:13.858Z,18.49
2023-03-29T16:27:19.497Z,18.48
2023-03-29T16:37:31.199Z,18.46
2023-03-29T16:47:36.754Z,18.46
2023-03-29T16:57:42.413Z,18.42
2023-03-29T17:07:47.813Z,18.40
2023-03-29T17:17:54.880Z,18.40
2023-03-29T17:28:00.212Z,18.39
2023-03-29T17:38:06.113Z,18.35
2023-03-29T17:48:11.595Z,18.35
2023-03-29T17:58:17.360Z,18.31
2023-03-29T18:08:24.506Z,18.30
2023-03-29T18:18:30.653Z,18.30
2023-03-29T18:28:38.807Z,18.31
2023-03-29T18:38:46.356Z,18.30
2023-03-29T18:48:52.309Z,18.30
2023-03-29T18:58:58.382Z,18.30
2023-03-29T19:09:06.871Z,18.28
2023-03-29T19:19:12.265Z,18.28
2023-03-29T19:29:18.408Z,18.27
2023-03-29T19:39:24.374Z,18.27
2023-03-29T19:49:30.056Z,18.26
2023-03-29T19:59:36.193Z,18.26
2023-03-29T20:09:44.582Z,18.26
2023-03-29T20:19:49.657Z,18.25
2023-03-29T20:29:55.096Z,13.14
2023-03-29T20:40:01.311Z,13.93
2023-03-29T20:50:07.144Z,14.04
2023-03-29T21:00:12.645Z,14.04
2023-03-29T21:10:17.521Z,13.43
2023-03-29T21:20:24.902Z,15.75
2023-03-29T21:30:32.179Z,15.75
2023-03-29T21:40:38.181Z,16.99
2023-03-29T21:50:43.867Z,16.99
2023-03-29T22:00:49.767Z,17.40
2023-03-29T22:10:55.688Z,17.44
2023-03-29T22:21:01.356Z,17.44
2023-03-29T22:31:07.269Z,17.66
2023-03-29T22:41:13.184Z,17.66
2023-03-29T22:51:18.662Z,17.72
2023-03-29T23:01:23.886Z,17.72
2023-03-29T23:11:29.769Z,17.84
2023-03-29T23:21:35.200Z,17.84
2023-03-29T23:31:41.039Z,17.94
2023-03-29T23:41:46.703Z,17.96
2023-03-29T23:51:52.432Z,18.02
